createdAt,value
2018-04-10T00:00:55.503Z,59.94
2018-04-10T00:01:55.460Z,59.84
2018-04-10T00:02:55.415Z,59.94
2018-04-10T00:03:55.378Z,59.94
2018-04-10T00:04:55.329Z,60.32
2018-04-10T00:05:55.286Z,59.75
2018-04-10T00:06:55.242Z,59.65
2018-04-10T00:07:55.199Z,59.94
2018-04-10T00:08:55.158Z,59.65
2018-04-10T00:09:55.112Z,59.75
2018-04-10T00:10:55.068Z,59.81
2018-04-10T00:11:55.027Z,60.13
2018-04-10T00:12:54.984Z,59.81
2018-04-10T00:13:54.940Z,60.48
2018-04-10T00:14:54.896Z,60.19
2018-04-10T00:15:54.852Z,60.10
2018-04-10T00:16:54.809Z,60.19
2018-04-10T00:17:54.766Z,60.70
2018-04-10T00:18:54.722Z,60.29
2018-04-10T00:19:54.686Z,60.38
2018-04-10T00:20:54.635Z,60.77
2018-04-10T00:21:54.592Z,60.67
2018-04-10T00:22:54.548Z,60.38
2018-04-10T00:23:54.505Z,60.58
2018-04-10T00:24:54.462Z,60.77
2018-04-10T00:25:54.419Z,61.44
2018-04-10T00:26:54.375Z,61.25
2018-04-10T00:27:54.331Z,61.34
2018-04-10T00:28:54.289Z,60.96
2018-04-10T00:29:54.246Z,61.05
2018-04-10T00:30:54.201Z,60.86
2018-04-10T00:31:54.158Z,61.34
2018-04-10T00:32:54.114Z,61.72
2018-04-10T00:33:54.078Z,61.25
2018-04-10T00:34:54.027Z,61.34
2018-04-10T00:35:53.984Z,61.25
2018-04-10T00:36:53.941Z,61.25
2018-04-10T00:37:53.897Z,61.34
2018-04-10T00:38:53.853Z,61.34
2018-04-10T00:39:53.811Z,61.25
2018-04-10T00:40:53.767Z,61.25
2018-04-10T00:41:53.726Z,61.44
2018-04-10T00:42:53.680Z,61.25
2018-04-10T00:43:53.637Z,61.15
2018-04-10T00:44:53.593Z,61.91
2018-04-10T00:45:53.553Z,61.63
2018-04-10T00:46:53.506Z,61.44
2018-04-10T00:47:53.463Z,62.01
2018-04-10T00:48:53.419Z,62.11
2018-04-10T00:49:53.376Z,62.01
2018-04-10T00:50:53.332Z,62.01
2018-04-10T00:51:53.288Z,61.91
2018-04-10T00:52:53.246Z,62.30
2018-04-10T00:53:53.202Z,62.11
2018-04-10T00:54:53.158Z,62.20
2018-04-10T00:55:53.115Z,62.30
2018-04-10T00:56:53.073Z,62.20
2018-04-10T00:57:53.028Z,62.59
2018-04-10T00:58:52.984Z,62.49
2018-04-10T00:59:52.941Z,62.68
2018-04-10T01:00:52.898Z,62.49
2018-04-10T01:01:52.854Z,62.55
2018-04-10T01:02:52.810Z,62.59
2018-04-10T01:03:52.767Z,62.87
2018-04-10T01:04:52.723Z,62.68
2018-04-10T01:05:52.680Z,62.97
2018-04-10T01:06:52.640Z,62.77
2018-04-10T01:07:52.593Z,63.06
2018-04-10T01:08:52.549Z,63.35
2018-04-10T01:09:52.506Z,63.32
2018-04-10T01:10:52.461Z,63.13
2018-04-10T01:11:52.418Z,63.13
2018-04-10T01:12:52.374Z,63.13
2018-04-10T01:13:52.331Z,62.94
2018-04-10T01:14:52.286Z,63.23
2018-04-10T01:15:52.244Z,63.35
2018-04-10T01:16:52.201Z,63.42
2018-04-10T01:17:52.156Z,63.23
2018-04-10T01:18:52.115Z,63.32
2018-04-10T01:19:52.068Z,63.80
2018-04-10T01:20:52.024Z,63.51
2018-04-10T01:21:51.981Z,63.51
2018-04-10T01:22:51.937Z,63.42
2018-04-10T01:23:51.893Z,63.51
2018-04-10T01:24:51.849Z,63.42
2018-04-10T01:25:51.806Z,63.51
2018-04-10T01:26:51.761Z,63.42
2018-04-10T01:27:51.717Z,63.51
2018-04-10T01:28:51.673Z,63.51
2018-04-10T01:29:51.630Z,63.42
2018-04-10T01:30:51.585Z,63.70
2018-04-10T01:31:51.542Z,63.60
2018-04-10T01:32:51.498Z,63.70
2018-04-10T01:33:51.454Z,63.42
2018-04-10T01:34:51.409Z,63.70
2018-04-10T01:35:51.366Z,63.70
2018-04-10T01:36:51.326Z,63.70
2018-04-10T01:37:51.278Z,63.70
2018-04-10T01:38:51.235Z,63.23
2018-04-10T01:39:51.190Z,63.32
2018-04-10T01:40:51.146Z,63.42
2018-04-10T01:41:51.102Z,63.42
2018-04-10T01:42:51.057Z,63.32
2018-04-10T01:43:51.015Z,63.51
2018-04-10T01:44:50.970Z,63.32
2018-04-10T01:45:50.926Z,63.23
2018-04-10T01:46:50.881Z,63.23
2018-04-10T01:47:50.838Z,63.42
2018-04-10T01:48:50.798Z,63.32
2018-04-10T01:49:50.752Z,63.32
2018-04-10T01:50:50.709Z,63.42
2018-04-10T01:51:50.662Z,63.70
2018-04-10T01:52:50.620Z,63.60
2018-04-10T01:53:50.574Z,63.42
2018-04-10T01:54:50.529Z,63.32
2018-04-10T01:55:50.490Z,63.42
2018-04-10T01:56:50.444Z,63.32
2018-04-10T01:57:50.398Z,64.37
2018-04-10T01:58:50.354Z,64.09
2018-04-10T01:59:50.309Z,64.09
2018-04-10T02:00:50.266Z,63.99
2018-04-10T02:01:50.222Z,64.56
2018-04-10T02:02:50.180Z,64.18
2018-04-10T02:03:50.132Z,64.09
2018-04-10T02:04:50.091Z,64.56
2018-04-10T02:05:50.044Z,64.37
2018-04-10T02:06:50.000Z,64.28
2018-04-10T02:07:49.955Z,64.85
2018-04-10T02:08:49.912Z,64.53
2018-04-10T02:09:49.868Z,65.23
2018-04-10T02:10:49.823Z,65.30
2018-04-10T02:11:49.779Z,65.30
2018-04-10T02:12:49.734Z,65.20
2018-04-10T02:13:49.692Z,65.20
2018-04-10T02:14:49.645Z,65.39
2018-04-10T02:15:49.601Z,65.48
2018-04-10T02:16:49.558Z,65.39
2018-04-10T02:17:49.513Z,65.97
2018-04-10T02:18:49.468Z,65.58
2018-04-10T02:19:49.425Z,65.58
2018-04-10T02:20:49.380Z,66.25
2018-04-10T02:21:49.336Z,66.35
2018-04-10T02:22:49.292Z,66.16
2018-04-10T02:23:49.249Z,66.83
2018-04-10T02:24:49.204Z,66.83
2018-04-10T02:25:49.159Z,66.35
2018-04-10T02:26:49.113Z,66.54
2018-04-10T02:27:49.069Z,66.44
2018-04-10T02:28:49.025Z,66.92
2018-04-10T02:29:48.982Z,66.83
2018-04-10T02:30:48.936Z,66.83
2018-04-10T02:31:48.892Z,67.21
2018-04-10T02:32:48.847Z,67.11
2018-04-10T02:33:48.803Z,67.21
2018-04-10T02:34:48.758Z,67.11
2018-04-10T02:35:48.713Z,67.21
2018-04-10T02:36:48.669Z,67.40
2018-04-10T02:37:48.625Z,67.46
2018-04-10T02:38:48.634Z,67.02
2018-04-10T02:39:48.535Z,67.46
2018-04-10T02:40:48.491Z,67.97
2018-04-10T02:41:48.447Z,68.07
2018-04-10T02:42:48.401Z,67.59
2018-04-10T02:43:48.358Z,68.26
2018-04-10T02:44:48.317Z,67.84
2018-04-10T02:45:48.269Z,68.04
2018-04-10T02:46:48.227Z,67.88
2018-04-10T02:47:48.180Z,68.04
2018-04-10T02:48:48.136Z,67.75
2018-04-10T02:49:48.091Z,67.36
2018-04-10T02:50:48.045Z,67.18
2018-04-10T02:51:48.005Z,67.84
2018-04-10T02:52:47.957Z,67.65
2018-04-10T02:53:47.915Z,68.13
2018-04-10T02:54:47.868Z,67.84
2018-04-10T02:55:47.823Z,68.41
2018-04-10T02:56:47.779Z,67.94
2018-04-10T02:57:47.735Z,68.51
2018-04-10T02:58:47.690Z,67.55
2018-04-10T02:59:47.647Z,68.04
2018-04-10T03:00:47.601Z,68.41
2018-04-10T03:01:47.559Z,68.80
2018-04-10T03:02:47.512Z,68.32
2018-04-10T03:03:47.468Z,68.51
2018-04-10T03:04:47.424Z,68.32
2018-04-10T03:05:47.381Z,68.99
2018-04-10T03:06:47.334Z,68.70
2018-04-10T03:07:47.290Z,68.51
2018-04-10T03:08:47.245Z,68.32
2018-04-10T03:09:47.201Z,68.80
2018-04-10T03:10:47.155Z,68.99
2018-04-10T03:11:47.110Z,68.70
2018-04-10T03:12:47.068Z,69.56
2018-04-10T03:13:47.022Z,69.37
2018-04-10T03:14:46.976Z,69.56
2018-04-10T03:15:46.932Z,69.37
2018-04-10T03:16:46.889Z,69.37
2018-04-10T03:17:46.843Z,69.09
2018-04-10T03:18:46.797Z,69.18
2018-04-10T03:19:46.753Z,69.27
2018-04-10T03:20:46.731Z,69.37
2018-04-10T03:21:46.664Z,69.18
2018-04-10T03:22:46.619Z,69.09
2018-04-10T03:23:46.575Z,69.27
2018-04-10T03:24:46.530Z,69.47
2018-04-10T03:25:46.485Z,69.91
2018-04-10T03:26:46.440Z,69.95
2018-04-10T03:27:46.395Z,70.01
2018-04-10T03:28:46.351Z,70.10
2018-04-10T03:29:46.306Z,69.91
2018-04-10T03:30:46.261Z,70.29
2018-04-10T03:31:46.216Z,70.01
2018-04-10T03:32:46.172Z,69.91
2018-04-10T03:33:46.128Z,69.72
2018-04-10T03:34:46.083Z,69.91
2018-04-10T03:35:46.038Z,70.20
2018-04-10T03:36:46.038Z,70.29
2018-04-10T03:37:45.949Z,70.29
2018-04-10T03:38:45.903Z,70.29
2018-04-10T03:39:45.859Z,70.29
2018-04-10T03:40:45.819Z,70.29
2018-04-10T03:41:45.769Z,70.10
2018-04-10T03:42:45.724Z,70.48
2018-04-10T03:43:45.680Z,70.39
2018-04-10T03:44:45.635Z,70.58
2018-04-10T03:45:45.590Z,71.06
2018-04-10T03:46:45.544Z,70.48
2018-04-10T03:47:45.500Z,70.39
2018-04-10T03:48:45.455Z,71.06
2018-04-10T03:49:45.411Z,71.15
2018-04-10T03:50:45.415Z,70.29
2018-04-10T03:51:45.321Z,70.29
2018-04-10T03:52:45.276Z,70.58
2018-04-10T03:53:45.231Z,70.48
2018-04-10T03:54:45.185Z,70.87
2018-04-10T03:55:45.196Z,70.77
2018-04-10T03:56:45.095Z,70.39
2018-04-10T03:57:45.051Z,70.96
2018-04-10T03:58:45.005Z,70.67
2018-04-10T03:59:44.960Z,70.39
2018-04-10T04:00:44.916Z,70.67
2018-04-10T04:01:44.871Z,70.01
2018-04-10T04:02:44.825Z,70.20
2018-04-10T04:03:44.780Z,70.20
2018-04-10T04:04:44.735Z,70.39
2018-04-10T04:05:44.690Z,70.29
2018-04-10T04:06:44.651Z,70.39
2018-04-10T04:07:44.600Z,69.91
2018-04-10T04:08:44.557Z,69.91
2018-04-10T04:09:44.510Z,70.01
2018-04-10T04:10:44.564Z,69.72
2018-04-10T04:11:44.419Z,69.62
2018-04-10T04:12:44.375Z,70.10
2018-04-10T04:13:44.329Z,69.91
2018-04-10T04:14:44.283Z,69.91
2018-04-10T04:15:44.239Z,69.91
2018-04-10T04:16:44.195Z,69.82
2018-04-10T04:17:44.150Z,69.91
2018-04-10T04:18:44.104Z,69.91
2018-04-10T04:19:44.058Z,70.01
2018-04-10T04:20:44.014Z,70.10
2018-04-10T04:21:43.972Z,69.72
2018-04-10T04:22:43.923Z,70.39
2018-04-10T04:23:43.878Z,70.29
2018-04-10T04:24:43.833Z,70.29
2018-04-10T04:25:43.788Z,70.20
2018-04-10T04:26:43.742Z,69.82
2018-04-10T04:27:43.697Z,69.91
2018-04-10T04:28:43.652Z,69.72
2018-04-10T04:29:43.614Z,70.10
2018-04-10T04:30:43.561Z,70.10
2018-04-10T04:31:43.516Z,70.10
2018-04-10T04:32:43.472Z,70.10
2018-04-10T04:33:43.426Z,70.20
2018-04-10T04:34:43.380Z,70.20
2018-04-10T04:35:43.334Z,70.14
2018-04-10T04:36:43.291Z,70.20
2018-04-10T04:37:43.246Z,70.20
2018-04-10T04:38:43.200Z,70.10
2018-04-10T04:39:43.159Z,70.23
2018-04-10T04:40:43.111Z,69.91
2018-04-10T04:41:43.067Z,70.23
2018-04-10T04:42:43.019Z,69.76
2018-04-10T04:43:42.975Z,69.91
2018-04-10T04:44:42.930Z,69.85
2018-04-10T04:45:42.885Z,69.85
2018-04-10T04:46:42.840Z,69.76
2018-04-10T04:47:42.796Z,69.85
2018-04-10T04:48:42.750Z,70.04
2018-04-10T04:49:42.705Z,69.95
2018-04-10T04:50:42.659Z,69.95
2018-04-10T04:51:42.615Z,70.04
2018-04-10T04:52:42.570Z,69.85
2018-04-10T04:53:42.525Z,69.66
2018-04-10T04:54:42.479Z,69.47
2018-04-10T04:55:42.435Z,69.47
2018-04-10T04:56:42.390Z,69.09
2018-04-10T04:57:42.346Z,69.18
2018-04-10T04:58:42.300Z,69.09
2018-04-10T04:59:42.255Z,69.18
2018-04-10T05:00:42.210Z,69.56
2018-04-10T05:01:42.166Z,69.09
2018-04-10T05:02:42.120Z,69.09
2018-04-10T05:03:42.075Z,68.80
2018-04-10T05:04:42.033Z,69.09
2018-04-10T05:05:41.989Z,69.18
2018-04-10T05:06:41.941Z,68.55
2018-04-10T05:07:41.896Z,68.35
2018-04-10T05:08:41.851Z,68.32
2018-04-10T05:09:41.807Z,68.74
2018-04-10T05:10:41.763Z,68.45
2018-04-10T05:11:41.717Z,68.35
2018-04-10T05:12:41.672Z,67.88
2018-04-10T05:13:41.628Z,67.97
2018-04-10T05:14:41.584Z,67.69
2018-04-10T05:15:41.538Z,68.07
2018-04-10T05:16:41.493Z,67.69
2018-04-10T05:17:41.449Z,67.78
2018-04-10T05:18:41.404Z,68.07
2018-04-10T05:19:41.358Z,68.07
2018-04-10T05:20:41.315Z,67.88
2018-04-10T05:21:41.321Z,67.30
2018-04-10T05:22:41.225Z,68.07
2018-04-10T05:23:41.184Z,67.21
2018-04-10T05:24:41.137Z,67.30
2018-04-10T05:25:41.096Z,67.11
2018-04-10T05:26:41.048Z,66.96
2018-04-10T05:27:41.006Z,66.57
2018-04-10T05:28:40.960Z,66.57
2018-04-10T05:29:40.916Z,66.67
2018-04-10T05:30:40.871Z,66.86
2018-04-10T05:31:40.827Z,65.90
2018-04-10T05:32:40.783Z,66.38
2018-04-10T05:33:40.739Z,66.28
2018-04-10T05:34:40.694Z,65.71
2018-04-10T05:35:40.662Z,66.09
2018-04-10T05:36:40.607Z,65.71
2018-04-10T05:37:40.564Z,65.45
2018-04-10T05:38:40.518Z,65.36
2018-04-10T05:39:40.475Z,65.17
2018-04-10T05:40:40.431Z,65.26
2018-04-10T05:41:40.391Z,64.59
2018-04-10T05:42:40.343Z,64.40
2018-04-10T05:43:40.303Z,64.12
2018-04-10T05:44:40.257Z,64.69
2018-04-10T05:45:40.213Z,64.22
2018-04-10T05:46:40.168Z,64.02
2018-04-10T05:47:40.124Z,63.57
2018-04-10T05:48:40.081Z,63.57
2018-04-10T05:49:40.039Z,63.29
2018-04-10T05:50:39.993Z,62.07
2018-04-10T05:51:39.950Z,60.96
2018-04-10T05:52:39.907Z,59.83
2018-04-10T05:53:39.864Z,59.09
2018-04-10T05:54:39.820Z,57.21
2018-04-10T05:55:39.776Z,56.37
2018-04-10T05:56:39.734Z,55.73
2018-04-10T05:57:39.691Z,54.69
2018-04-10T05:58:39.667Z,53.45
2018-04-10T05:59:39.606Z,52.70
2018-04-10T06:00:39.564Z,51.84
2018-04-10T06:01:39.522Z,51.64
2018-04-10T06:02:39.480Z,51.38
2018-04-10T06:03:39.438Z,49.77
2018-04-10T06:04:39.400Z,49.51
2018-04-10T06:05:39.357Z,48.25
2018-04-10T06:06:39.364Z,47.60
2018-04-10T06:07:39.274Z,46.83
2018-04-10T06:08:39.233Z,46.83
2018-04-10T06:09:39.192Z,46.45
2018-04-10T06:10:39.150Z,46.35
2018-04-10T06:11:39.110Z,46.23
2018-04-10T06:12:39.070Z,46.35
2018-04-10T06:13:39.030Z,46.18
2018-04-10T06:14:38.989Z,45.31
2018-04-10T06:15:38.948Z,44.46
2018-04-10T06:16:38.909Z,44.01
2018-04-10T06:17:38.870Z,43.45
2018-04-10T06:18:38.829Z,43.16
2018-04-10T06:19:38.790Z,42.41
2018-04-10T06:20:38.752Z,41.54
2018-04-10T06:21:38.713Z,41.35
2018-04-10T06:22:38.672Z,41.46
2018-04-10T06:23:38.635Z,40.42
2018-04-10T06:24:38.596Z,39.94
2018-04-10T06:25:38.558Z,39.95
2018-04-10T06:26:38.517Z,39.20
2018-04-10T06:27:38.483Z,38.53
2018-04-10T06:28:38.442Z,38.06
2018-04-10T06:29:38.405Z,37.87
2018-04-10T06:30:38.366Z,37.48
2018-04-10T06:31:38.329Z,36.72
2018-04-10T06:32:38.292Z,36.62
2018-04-10T06:33:38.256Z,36.24
2018-04-10T06:34:38.217Z,36.25
2018-04-10T06:35:38.181Z,35.67
2018-04-10T06:36:38.144Z,35.49
2018-04-10T06:37:38.109Z,34.93
2018-04-10T06:38:38.070Z,34.64
2018-04-10T06:39:38.035Z,34.16
2018-04-10T06:40:37.999Z,34.06
2018-04-10T06:41:37.963Z,33.59
2018-04-10T06:42:37.928Z,33.01
2018-04-10T06:43:37.892Z,32.92
2018-04-10T06:44:37.857Z,32.24
2018-04-10T06:45:37.822Z,32.17
2018-04-10T06:46:37.788Z,31.98
2018-04-10T06:47:37.784Z,31.50
2018-04-10T06:48:37.714Z,30.91
2018-04-10T06:49:37.679Z,31.21
2018-04-10T06:50:37.643Z,30.82
2018-04-10T06:51:37.608Z,30.04
2018-04-10T06:52:37.573Z,30.71
2018-04-10T06:53:37.539Z,30.80
2018-04-10T06:54:37.503Z,30.72
2018-04-10T06:55:37.469Z,29.96
2018-04-10T06:56:37.434Z,30.17
2018-04-10T06:57:37.401Z,29.58
2018-04-10T06:58:37.366Z,29.19
2018-04-10T06:59:37.335Z,29.28
2018-04-10T07:00:37.299Z,28.80
2018-04-10T07:01:37.310Z,29.00
2018-04-10T07:02:37.229Z,28.90
2018-04-10T07:03:37.196Z,28.70
2018-04-10T07:04:37.162Z,28.72
2018-04-10T07:05:37.179Z,28.05
2018-04-10T07:06:37.094Z,27.86
2018-04-10T07:07:37.060Z,27.84
2018-04-10T07:08:37.028Z,28.03
2018-04-10T07:09:36.994Z,28.69
2018-04-10T07:10:36.960Z,28.88
2018-04-10T07:11:36.927Z,28.99
2018-04-10T07:12:36.894Z,28.42
2018-04-10T07:13:36.861Z,28.04
2018-04-10T07:14:36.826Z,27.94
2018-04-10T07:15:36.800Z,27.55
2018-04-10T07:16:36.761Z,27.75
2018-04-10T07:17:36.726Z,27.84
2018-04-10T07:18:36.691Z,27.18
2018-04-10T07:19:36.658Z,27.78
2018-04-10T07:20:36.631Z,26.81
2018-04-10T07:21:36.593Z,26.42
2018-04-10T07:22:36.559Z,26.23
2018-04-10T07:23:36.532Z,25.95
2018-04-10T07:24:36.493Z,25.67
2018-04-10T07:25:36.461Z,25.88
2018-04-10T07:26:36.429Z,25.20
2018-04-10T07:27:36.402Z,25.11
2018-04-10T07:28:36.365Z,24.73
2018-04-10T07:29:36.330Z,24.14
2018-04-10T07:30:36.297Z,24.35
2018-04-10T07:31:36.264Z,24.07
2018-04-10T07:32:36.234Z,23.48
2018-04-10T07:33:36.202Z,23.39
2018-04-10T07:34:36.169Z,23.21
2018-04-10T07:35:36.138Z,22.62
2018-04-10T07:36:36.107Z,22.52
2018-04-10T07:37:36.076Z,22.53
2018-04-10T07:38:36.046Z,22.34
2018-04-10T07:39:36.014Z,21.92
2018-04-10T07:40:35.983Z,22.51
2018-04-10T07:41:35.951Z,22.50
2018-04-10T07:42:35.919Z,22.89
2018-04-10T07:43:35.888Z,22.78
2018-04-10T07:44:35.857Z,22.78
2018-04-10T07:45:35.825Z,23.07
2018-04-10T07:46:35.793Z,23.36
2018-04-10T07:47:35.762Z,23.26
2018-04-10T07:48:35.732Z,23.35
2018-04-10T07:49:35.702Z,23.75
2018-04-10T07:50:35.669Z,23.47
2018-04-10T07:51:35.637Z,22.70
2018-04-10T07:52:35.606Z,22.61
2018-04-10T07:53:35.675Z,21.94
2018-04-10T07:54:35.544Z,21.55
2018-04-10T07:55:35.512Z,21.84
2018-04-10T07:56:35.482Z,21.83
2018-04-10T07:57:35.451Z,22.21
2018-04-10T07:58:35.463Z,22.31
2018-04-10T07:59:35.388Z,22.03
2018-04-10T08:00:35.358Z,21.66
2018-04-10T08:01:35.326Z,21.09
2018-04-10T08:02:35.304Z,20.41
2018-04-10T08:03:35.265Z,20.33
2018-04-10T08:04:35.285Z,19.96
2018-04-10T08:05:35.208Z,19.09
2018-04-10T08:06:35.173Z,18.81
2018-04-10T08:07:35.144Z,18.23
2018-04-10T08:08:35.164Z,18.42
2018-04-10T08:09:35.084Z,18.04
2018-04-10T08:10:35.053Z,17.65
2018-04-10T08:11:35.024Z,17.86
2018-04-10T08:12:34.994Z,16.88
2018-04-10T08:13:34.967Z,16.87
2018-04-10T08:14:34.942Z,16.96
2018-04-10T08:15:34.906Z,17.25
2018-04-10T08:16:34.878Z,16.86
2018-04-10T08:17:34.850Z,16.66
2018-04-10T08:18:34.821Z,16.76
2018-04-10T08:19:34.789Z,16.57
2018-04-10T08:20:34.762Z,16.68
2018-04-10T08:21:34.733Z,16.29
2018-04-10T08:22:34.704Z,15.91
2018-04-10T08:23:34.677Z,15.52
2018-04-10T08:24:34.648Z,15.03
2018-04-10T08:25:34.619Z,15.42
2018-04-10T08:26:34.591Z,14.93
2018-04-10T08:27:34.562Z,15.03
2018-04-10T08:28:34.535Z,15.02
2018-04-10T08:29:34.507Z,15.03
2018-04-10T08:30:34.479Z,15.23
2018-04-10T08:31:34.452Z,14.64
2018-04-10T08:32:34.424Z,15.03
2018-04-10T08:33:34.397Z,15.02
2018-04-10T08:34:34.370Z,14.92
2018-04-10T08:35:34.343Z,14.90
2018-04-10T08:36:34.315Z,15.39
2018-04-10T08:37:34.289Z,15.39
2018-04-10T08:38:34.260Z,15.48
2018-04-10T08:39:34.232Z,15.97
2018-04-10T08:40:34.205Z,15.67
2018-04-10T08:41:34.177Z,15.67
2018-04-10T08:42:34.150Z,16.16
2018-04-10T08:43:34.122Z,15.97
2018-04-10T08:44:34.094Z,16.07
2018-04-10T08:45:34.067Z,16.07
2018-04-10T08:46:34.038Z,15.88
2018-04-10T08:47:34.009Z,15.49
2018-04-10T08:48:33.983Z,15.20
2018-04-10T08:49:33.955Z,14.92
2018-04-10T08:50:33.944Z,14.44
2018-04-10T08:51:33.901Z,14.55
2018-04-10T08:52:33.874Z,14.07
2018-04-10T08:53:33.847Z,14.36
2018-04-10T08:54:33.820Z,13.97
2018-04-10T08:55:33.793Z,14.15
2018-04-10T08:56:33.766Z,14.04
2018-04-10T08:57:33.741Z,13.94
2018-04-10T08:58:33.713Z,14.62
2018-04-10T08:59:33.688Z,15.02
2018-04-10T09:00:33.660Z,14.83
2018-04-10T09:01:33.637Z,14.33
2018-04-10T09:02:33.607Z,14.91
2018-04-10T09:03:33.580Z,15.01
2018-04-10T09:04:33.554Z,15.01
2018-04-10T09:05:33.531Z,15.02
2018-04-10T09:06:33.501Z,14.34
2018-04-10T09:07:33.475Z,14.64
2018-04-10T09:08:33.449Z,14.54
2018-04-10T09:09:33.423Z,14.06
2018-04-10T09:10:33.448Z,14.15
2018-04-10T09:11:33.369Z,14.16
2018-04-10T09:12:33.346Z,13.95
2018-04-10T09:13:33.319Z,14.15
2018-04-10T09:14:33.291Z,14.15
2018-04-10T09:15:33.266Z,14.14
2018-04-10T09:16:33.239Z,14.62
2018-04-10T09:17:33.214Z,15.11
2018-04-10T09:18:33.186Z,15.31
2018-04-10T09:19:33.164Z,15.02
2018-04-10T09:20:33.134Z,14.73
2018-04-10T09:21:33.108Z,14.53
2018-04-10T09:22:33.080Z,15.01
2018-04-10T09:23:33.103Z,15.11
2018-04-10T09:24:33.027Z,15.11
2018-04-10T09:25:33.001Z,15.20
2018-04-10T09:26:32.973Z,14.82
2018-04-10T09:27:32.945Z,15.01
2018-04-10T09:28:32.920Z,15.01
2018-04-10T09:29:32.942Z,14.99
2018-04-10T09:30:32.864Z,15.56
2018-04-10T09:31:32.835Z,16.82
2018-04-10T09:32:32.809Z,17.58
2018-04-10T09:33:32.881Z,18.44
2018-04-10T09:34:32.753Z,18.83
2018-04-10T09:35:32.724Z,19.13
2018-04-10T09:36:32.697Z,18.94
2018-04-10T09:37:32.667Z,18.76
2018-04-10T09:38:32.637Z,18.48
2018-04-10T09:39:32.658Z,17.80
2018-04-10T09:40:32.579Z,17.60
2018-04-10T09:41:32.550Z,17.50
2018-04-10T09:42:32.521Z,17.50
2018-04-10T09:43:32.493Z,18.29
2018-04-10T09:44:32.464Z,18.37
2018-04-10T09:45:32.434Z,19.43
2018-04-10T09:46:32.406Z,20.19
2018-04-10T09:47:32.377Z,20.37
2018-04-10T09:48:32.347Z,21.33
2018-04-10T09:49:32.317Z,22.48
2018-04-10T09:50:32.286Z,22.95
2018-04-10T09:51:32.257Z,23.82
2018-04-10T09:52:32.226Z,23.80
2018-04-10T09:53:32.196Z,25.04
2018-04-10T09:54:32.163Z,25.62
2018-04-10T09:55:32.133Z,25.90
2018-04-10T09:56:32.100Z,26.47
2018-04-10T09:57:32.068Z,27.33
2018-04-10T09:58:32.035Z,27.61
2018-04-10T09:59:32.005Z,28.38
2018-04-10T10:00:32.025Z,28.75
2018-04-10T10:01:31.937Z,29.22
2018-04-10T10:02:31.903Z,29.80
2018-04-10T10:03:31.869Z,30.08
2018-04-10T10:04:31.837Z,30.95
2018-04-10T10:05:31.803Z,31.62
2018-04-10T10:06:31.772Z,31.62
2018-04-10T10:07:31.734Z,31.89
2018-04-10T10:08:31.701Z,31.79
2018-04-10T10:09:31.666Z,31.89
2018-04-10T10:10:31.631Z,32.09
2018-04-10T10:11:31.596Z,32.37
2018-04-10T10:12:31.561Z,32.37
2018-04-10T10:13:31.527Z,32.37
2018-04-10T10:14:31.491Z,32.56
2018-04-10T10:15:31.456Z,32.65
2018-04-10T10:16:31.420Z,32.67
2018-04-10T10:17:31.385Z,33.04
2018-04-10T10:18:31.348Z,32.84
2018-04-10T10:19:31.313Z,33.04
2018-04-10T10:20:31.277Z,33.81
2018-04-10T10:21:31.241Z,34.19
2018-04-10T10:22:31.204Z,34.28
2018-04-10T10:23:31.168Z,34.67
2018-04-10T10:24:31.132Z,34.45
2018-04-10T10:25:31.095Z,34.36
2018-04-10T10:26:31.058Z,34.47
2018-04-10T10:27:31.022Z,34.67
2018-04-10T10:28:30.985Z,34.28
2018-04-10T10:29:30.949Z,34.11
2018-04-10T10:30:30.911Z,33.99
2018-04-10T10:31:30.875Z,34.01
2018-04-10T10:32:30.839Z,34.20
2018-04-10T10:33:30.808Z,34.39
2018-04-10T10:34:30.764Z,34.01
2018-04-10T10:35:30.728Z,34.39
2018-04-10T10:36:30.695Z,34.69
2018-04-10T10:37:30.655Z,34.69
2018-04-10T10:38:30.617Z,34.30
2018-04-10T10:39:30.585Z,34.01
2018-04-10T10:40:30.545Z,34.09
2018-04-10T10:41:30.561Z,34.30
2018-04-10T10:42:30.470Z,34.11
2018-04-10T10:43:30.484Z,34.38
2018-04-10T10:44:30.397Z,34.30
2018-04-10T10:45:30.361Z,34.20
2018-04-10T10:46:30.323Z,34.38
2018-04-10T10:47:30.286Z,34.59
2018-04-10T10:48:30.249Z,34.86
2018-04-10T10:49:30.213Z,35.25
2018-04-10T10:50:30.174Z,35.05
2018-04-10T10:51:30.139Z,35.13
2018-04-10T10:52:30.102Z,34.94
2018-04-10T10:53:30.065Z,35.15
2018-04-10T10:54:30.028Z,35.05
2018-04-10T10:55:29.990Z,35.25
2018-04-10T10:56:29.954Z,35.35
2018-04-10T10:57:29.917Z,35.35
2018-04-10T10:58:29.879Z,35.35
2018-04-10T10:59:29.842Z,35.25
2018-04-10T11:00:29.805Z,35.25
2018-04-10T11:01:29.768Z,35.05
2018-04-10T11:02:29.731Z,35.54
2018-04-10T11:03:29.694Z,35.93
2018-04-10T11:04:29.656Z,36.10
2018-04-10T11:05:29.619Z,36.00
2018-04-10T11:06:29.625Z,36.20
2018-04-10T11:07:29.544Z,36.49
2018-04-10T11:08:29.506Z,36.30
2018-04-10T11:09:29.469Z,36.20
2018-04-10T11:10:29.431Z,36.30
2018-04-10T11:11:29.393Z,36.58
2018-04-10T11:12:29.356Z,36.68
2018-04-10T11:13:29.318Z,36.68
2018-04-10T11:14:29.280Z,36.58
2018-04-10T11:15:29.244Z,36.78
2018-04-10T11:16:29.205Z,36.68
2018-04-10T11:17:29.167Z,36.58
2018-04-10T11:18:29.130Z,36.40
2018-04-10T11:19:29.091Z,36.40
2018-04-10T11:20:29.092Z,36.40
2018-04-10T11:21:29.016Z,36.49
2018-04-10T11:22:28.979Z,36.40
2018-04-10T11:23:28.940Z,36.40
2018-04-10T11:24:28.903Z,36.78
2018-04-10T11:25:28.866Z,36.88
2018-04-10T11:26:28.827Z,36.78
2018-04-10T11:27:28.790Z,36.88
2018-04-10T11:28:28.753Z,36.98
2018-04-10T11:29:28.717Z,37.05
2018-04-10T11:30:28.676Z,37.63
2018-04-10T11:31:28.644Z,37.17
2018-04-10T11:32:28.601Z,37.17
2018-04-10T11:33:28.570Z,37.26
2018-04-10T11:34:28.525Z,37.36
2018-04-10T11:35:28.491Z,37.55
2018-04-10T11:36:28.458Z,37.36
2018-04-10T11:37:28.412Z,37.46
2018-04-10T11:38:28.374Z,36.78
2018-04-10T11:39:28.336Z,36.78
2018-04-10T11:40:28.303Z,36.88
2018-04-10T11:41:28.261Z,36.88
2018-04-10T11:42:28.223Z,36.58
2018-04-10T11:43:28.185Z,36.78
2018-04-10T11:44:28.147Z,36.88
2018-04-10T11:45:28.110Z,36.88
2018-04-10T11:46:28.072Z,37.17
2018-04-10T11:47:28.046Z,36.88
2018-04-10T11:48:27.996Z,37.07
2018-04-10T11:49:27.958Z,37.17
2018-04-10T11:50:27.923Z,36.88
2018-04-10T11:51:27.932Z,36.68
2018-04-10T11:52:27.844Z,36.78
2018-04-10T11:53:27.806Z,36.78
2018-04-10T11:54:27.767Z,36.49
2018-04-10T11:55:27.729Z,36.49
2018-04-10T11:56:27.691Z,36.68
2018-04-10T11:57:27.654Z,36.68
2018-04-10T11:58:27.616Z,36.68
2018-04-10T11:59:27.578Z,36.58
2018-04-10T12:00:27.549Z,36.70
2018-04-10T12:01:27.502Z,36.78
2018-04-10T12:02:27.464Z,36.68
2018-04-10T12:03:27.426Z,36.41
2018-04-10T12:04:27.388Z,36.32
2018-04-10T12:05:27.355Z,36.20
2018-04-10T12:06:27.312Z,35.91
2018-04-10T12:07:27.275Z,35.81
2018-04-10T12:08:27.240Z,35.72
2018-04-10T12:09:27.199Z,35.64
2018-04-10T12:10:27.161Z,35.25
2018-04-10T12:11:27.122Z,34.94
2018-04-10T12:12:27.085Z,35.04
2018-04-10T12:13:27.051Z,34.94
2018-04-10T12:14:27.009Z,34.84
2018-04-10T12:15:26.971Z,34.94
2018-04-10T12:16:26.934Z,34.45
2018-04-10T12:17:26.896Z,33.97
2018-04-10T12:18:26.858Z,33.87
2018-04-10T12:19:26.820Z,34.17
2018-04-10T12:20:26.783Z,34.17
2018-04-10T12:21:26.744Z,34.55
2018-04-10T12:22:26.706Z,34.84
2018-04-10T12:23:26.668Z,34.94
2018-04-10T12:24:26.630Z,34.75
2018-04-10T12:25:26.592Z,34.94
2018-04-10T12:26:26.554Z,34.94
2018-04-10T12:27:26.516Z,34.84
2018-04-10T12:28:26.488Z,35.04
2018-04-10T12:29:26.513Z,34.94
2018-04-10T12:30:26.402Z,34.83
2018-04-10T12:31:26.364Z,34.84
2018-04-10T12:32:26.327Z,35.04
2018-04-10T12:33:26.289Z,34.94
2018-04-10T12:34:26.250Z,35.23
2018-04-10T12:35:26.213Z,35.13
2018-04-10T12:36:26.174Z,35.23
2018-04-10T12:37:26.137Z,35.33
2018-04-10T12:38:26.098Z,35.23
2018-04-10T12:39:26.060Z,35.23
2018-04-10T12:40:26.072Z,35.04
2018-04-10T12:41:25.985Z,35.13
2018-04-10T12:42:25.946Z,34.94
2018-04-10T12:43:25.907Z,35.04
2018-04-10T12:44:25.870Z,35.13
2018-04-10T12:45:25.832Z,35.42
2018-04-10T12:46:25.794Z,35.23
2018-04-10T12:47:25.756Z,35.04
2018-04-10T12:48:25.718Z,34.94
2018-04-10T12:49:25.681Z,35.52
2018-04-10T12:50:25.644Z,35.04
2018-04-10T12:51:25.604Z,35.04
2018-04-10T12:52:25.565Z,35.23